Time;durP1;ratioP1;P1;durP2;ratioP2;P2;SDS_P1;SDS_P2;PMS_P1;PMS_P2;Temp;Humidity;BMP_temperature;BMP_pressure;BME280_temperature;BME280_humidity;BME280_pressure;Samples;Min_cycle;Max_cycle;Signal;HPM_P1;HPM_P2
2022/09/12 00:01:21;;;;;;;2.00;1.90;;;;;;;15.30;59.50;101584.34;4929138;28;97509;-49
2022/09/12 00:03:46;;;;;;;2.27;2.17;;;;;;;15.26;59.33;101586.59;4930806;28;97003;-50
2022/09/12 00:06:24;;;;;;;2.10;2.00;;;;;;;15.20;59.63;101585.84;4946441;28;96732;-50
2022/09/12 00:08:50;;;;;;;2.40;2.13;;;;;;;15.15;59.71;101581.03;4950494;28;97923;-51
2022/09/12 00:11:15;;;;;;;1.80;1.80;;;;;;;15.12;59.76;101582.03;4928992;28;97388;-50
2022/09/12 00:13:42;;;;;;;2.43;2.23;;;;;;;15.09;59.63;101591.34;4926728;28;98866;-49
2022/09/12 00:16:15;;;;;;;2.30;2.20;;;;;;;15.08;59.50;101582.28;4948584;28;97149;-50
2022/09/12 00:18:40;;;;;;;5.30;1.93;;;;;;;15.06;59.41;101586.81;4943876;28;96921;-50
2022/09/12 00:21:05;;;;;;;2.40;2.30;;;;;;;15.03;59.47;101583.00;4943512;28;97529;-49
2022/09/12 00:23:31;;;;;;;2.07;1.97;;;;;;;14.96;59.51;101583.53;4943030;28;117128;-49
2022/09/12 00:25:57;;;;;;;2.33;2.23;;;;;;;14.91;59.65;101579.47;4934447;28;96743;-50
2022/09/12 00:28:22;;;;;;;2.70;2.50;;;;;;;14.87;59.82;101569.91;4921641;28;96847;-49
2022/09/12 00:30:48;;;;;;;2.23;2.13;;;;;;;14.84;59.72;101582.72;4941108;28;97019;-49
2022/09/12 00:33:15;;;;;;;3.33;2.17;;;;;;;14.80;59.92;101582.22;4945867;28;98400;-50
2022/09/12 00:35:43;;;;;;;6.13;2.37;;;;;;;14.80;59.60;101576.69;4930018;28;96740;-50
2022/09/12 00:38:08;;;;;;;2.43;2.27;;;;;;;14.78;59.47;101581.97;4935141;28;98359;-49
2022/09/12 00:40:33;;;;;;;2.07;1.97;;;;;;;14.71;59.35;101574.13;4945511;28;97121;-50
2022/09/12 00:42:59;;;;;;;2.53;2.33;;;;;;;14.66;59.28;101576.84;4926252;28;109867;-49
2022/09/12 00:45:28;;;;;;;2.10;1.93;;;;;;;14.58;59.40;101571.06;4940656;28;97305;-49
2022/09/12 00:47:57;;;;;;;2.20;2.10;;;;;;;14.49;59.52;101568.50;4930300;28;97505;-50
2022/09/12 00:50:23;;;;;;;2.03;2.00;;;;;;;14.42;59.72;101566.19;4924093;28;97632;-49
2022/09/12 00:53:01;;;;;;;3.37;2.37;;;;;;;14.40;59.85;101559.63;4924486;28;97235;-49
2022/09/12 00:55:33;;;;;;;2.17;2.07;;;;;;;14.36;59.87;101559.09;4926029;28;97406;-49
2022/09/12 00:58:08;;;;;;;2.20;2.10;;;;;;;14.37;59.86;101561.41;4943281;28;97038;-49
2022/09/12 01:00:33;;;;;;;2.37;2.13;;;;;;;14.35;59.82;101563.88;4940962;28;100536;-50
2022/09/12 01:03:03;;;;;;;9.10;2.33;;;;;;;14.34;60.00;101559.63;4938463;28;100368;-50
2022/09/12 01:05:32;;;;;;;2.43;2.30;;;;;;;14.32;59.65;101551.06;4943646;28;97577;-49
2022/09/12 01:08:00;;;;;;;2.30;2.10;;;;;;;14.26;59.59;101550.25;4945825;28;96985;-51
2022/09/12 01:10:26;;;;;;;2.07;1.97;;;;;;;14.22;59.60;101550.47;4934979;28;96829;-49
2022/09/12 01:12:51;;;;;;;1.60;1.50;;;;;;;14.21;59.50;101540.66;4946612;28;113151;-50
2022/09/12 01:15:17;;;;;;;1.80;1.70;;;;;;;14.20;59.67;101541.91;4944541;28;98662;-55
2022/09/12 01:18:10;;;;;;;1.87;1.77;;;;;;;14.19;59.66;101539.63;4941721;28;97286;-50
2022/09/12 01:20:48;;;;;;;3.13;2.20;;;;;;;14.09;60.02;101539.06;4946959;28;100666;-50
2022/09/12 01:23:51;;;;;;;1.50;1.50;;;;;;;14.04;59.97;101539.06;4944067;28;97012;-50
2022/09/12 01:26:56;;;;;;;2.20;2.10;;;;;;;14.01;60.11;101540.78;4936261;28;97310;-50
2022/09/12 01:29:50;;;;;;;2.50;1.83;;;;;;;14.02;59.97;101536.75;4932685;28;99055;-50
2022/09/12 01:32:47;;;;;;;1.73;1.63;;;;;;;13.99;60.14;101537.78;4943604;28;101994;-50
2022/09/12 01:36:03;;;;;;;2.20;2.10;;;;;;;13.94;59.99;101540.47;4940284;28;100187;-50
2022/09/12 01:38:37;;;;;;;2.30;2.20;;;;;;;13.90;59.82;101537.97;4938489;28;96788;-50
2022/09/12 01:41:05;;;;;;;2.50;2.30;;;;;;;13.86;59.97;101537.44;4948260;28;97075;-50
2022/09/12 01:43:36;;;;;;;2.10;2.00;;;;;;;13.83;60.00;101541.19;4945275;28;97291;-50
2022/09/12 01:46:07;;;;;;;2.40;2.30;;;;;;;13.81;60.04;101535.38;4942671;28;97511;-50
2022/09/12 01:48:39;;;;;;;1.50;1.50;;;;;;;13.83;60.03;101543.19;4943679;28;97022;-50
2022/09/12 01:51:23;;;;;;;1.97;1.87;;;;;;;13.79;59.76;101537.13;4944147;28;96980;-50
2022/09/12 01:54:06;;;;;;;2.07;1.87;;;;;;;13.75;60.29;101534.59;4943779;28;102001;-50
2022/09/12 01:56:34;;;;;;;2.00;1.90;;;;;;;13.74;60.11;101535.09;4936217;28;101782;-51
2022/09/12 01:59:23;;;;;;;1.57;1.53;;;;;;;13.73;60.21;101528.03;4930064;28;97195;-51
2022/09/12 02:02:02;;;;;;;2.10;2.00;;;;;;;13.72;59.92;101534.81;4931283;28;97281;-50
2022/09/12 02:04:35;;;;;;;1.60;1.50;;;;;;;13.68;59.88;101523.22;4927835;28;101872;-50
2022/09/12 02:07:10;;;;;;;1.60;1.60;;;;;;;13.65;59.82;101516.66;4945763;28;100167;-50
2022/09/12 02:09:44;;;;;;;1.80;1.70;;;;;;;13.62;59.75;101520.44;4944850;28;96842;-50
2022/09/12 02:12:14;;;;;;;2.07;1.97;;;;;;;13.59;59.88;101515.09;4931750;28;97132;-50
2022/09/12 02:14:45;;;;;;;2.40;2.30;;;;;;;13.58;60.14;101519.91;4935342;28;97492;-50
2022/09/12 02:17:14;;;;;;;1.97;1.87;;;;;;;13.57;60.22;101518.38;4937721;28;96932;-51
2022/09/12 02:19:45;;;;;;;1.50;1.50;;;;;;;13.60;60.39;101522.16;4943230;28;96979;-50
2022/09/12 02:22:14;;;;;;;1.83;1.80;;;;;;;13.60;60.11;101511.09;4939316;28;97316;-50
2022/09/12 02:24:44;;;;;;;2.13;1.97;;;;;;;13.58;59.92;101505.31;4929868;28;100453;-50
2022/09/12 02:27:28;;;;;;;1.50;1.50;;;;;;;13.51;60.05;101499.00;4934110;28;97197;-50
2022/09/12 02:29:53;;;;;;;3.47;1.90;;;;;;;13.46;59.86;101508.00;4940555;28;97540;-50
2022/09/12 02:32:25;;;;;;;1.93;1.83;;;;;;;13.46;60.21;101512.75;4942437;28;97106;-49
2022/09/12 02:34:51;;;;;;;2.47;2.37;;;;;;;13.47;60.47;101523.34;4938853;28;102303;-50
2022/09/12 02:37:30;;;;;;;2.30;2.20;;;;;;;13.48;60.62;101516.53;4944887;28;97332;-50
2022/09/12 02:39:56;;;;;;;2.50;2.13;;;;;;;13.46;60.04;101513.53;4939659;28;96967;-50
2022/09/12 02:42:23;;;;;;;2.40;2.30;;;;;;;13.46;59.98;101512.75;4932371;28;97420;-50
2022/09/12 02:44:49;;;;;;;2.63;2.53;;;;;;;13.41;59.92;101508.69;4936184;28;97294;-50
2022/09/12 02:47:21;;;;;;;2.00;1.90;;;;;;;13.40;60.00;101509.19;4926740;28;96867;-50
2022/09/12 02:49:47;;;;;;;2.23;2.13;;;;;;;13.34;59.88;101498.09;4941106;28;96746;-50
2022/09/12 02:52:13;;;;;;;1.77;1.67;;;;;;;13.30;60.02;101500.31;4925400;28;97497;-50
2022/09/12 02:54:38;;;;;;;3.37;2.13;;;;;;;13.25;59.97;101498.28;4923709;28;97529;-50
2022/09/12 02:57:15;;;;;;;2.27;2.10;;;;;;;13.22;60.19;101499.25;4926205;28;97622;-50
2022/09/12 02:59:40;;;;;;;2.10;2.00;;;;;;;13.18;60.05;101498.72;4946596;28;97284;-50
2022/09/12 03:02:26;;;;;;;2.40;2.30;;;;;;;13.19;60.09;101499.47;4940950;28;97108;-50
2022/09/12 03:05:29;;;;;;;5.57;2.00;;;;;;;13.12;60.23;101497.16;4937794;28;102236;-55
2022/09/12 03:08:16;;;;;;;2.20;2.10;;;;;;;13.05;59.94;101495.59;4930085;28;102777;-54
2022/09/12 03:11:42;;;;;;;1.93;1.83;;;;;;;12.99;60.50;101491.22;4935789;28;97002;-50
2022/09/12 03:14:33;;;;;;;1.93;1.70;;;;;;;12.95;60.08;101497.00;4917786;28;96895;-50
2022/09/12 03:17:04;;;;;;;2.03;1.93;;;;;;;12.94;60.21;101498.22;4936216;28;101869;-50
2022/09/12 03:19:59;;;;;;;2.00;1.90;;;;;;;12.92;60.08;101497.19;4925429;28;100484;-50
2022/09/12 03:22:53;;;;;;;1.70;1.60;;;;;;;12.79;60.54;101497.56;4927808;28;97072;-50
2022/09/12 03:25:31;;;;;;;2.30;2.20;;;;;;;12.73;60.16;101491.25;4931186;28;96968;-50
2022/09/12 03:28:06;;;;;;;3.03;2.53;;;;;;;12.69;60.48;101494.19;4936185;28;97807;-50
2022/09/12 03:30:40;;;;;;;2.87;2.50;;;;;;;12.69;60.53;101493.44;4937261;28;97120;-50
2022/09/12 03:33:10;;;;;;;3.43;2.63;;;;;;;12.70;60.45;101495.72;4943808;28;97520;-50
2022/09/12 03:35:35;;;;;;;2.70;2.50;;;;;;;12.73;60.57;101494.00;4937765;28;97062;-50
2022/09/12 03:38:00;;;;;;;3.27;3.07;;;;;;;12.76;60.43;101502.06;4943969;28;96852;-50
2022/09/12 03:40:26;;;;;;;2.80;2.60;;;;;;;12.76;60.28;101501.28;4934907;28;97649;-50
2022/09/12 03:42:57;;;;;;;2.80;2.60;;;;;;;12.69;60.57;101491.44;4923061;28;97101;-50
2022/09/12 03:45:22;;;;;;;7.27;2.67;;;;;;;12.69;60.42;101501.72;4940739;28;112852;-50
2022/09/12 03:47:48;;;;;;;3.23;3.00;;;;;;;12.66;60.45;101503.47;4940904;28;113056;-50
2022/09/12 03:50:13;;;;;;;5.70;3.10;;;;;;;12.65;60.73;101496.41;4933990;28;110942;-50
2022/09/12 03:52:38;;;;;;;2.90;2.63;;;;;;;12.66;60.42;101492.44;4935878;28;97231;-51
2022/09/12 03:55:04;;;;;;;2.77;2.57;;;;;;;12.65;60.36;101496.41;4932719;28;96880;-50
2022/09/12 03:57:30;;;;;;;4.37;2.80;;;;;;;12.64;60.47;101496.91;4927367;28;97594;-50
2022/09/12 03:59:55;;;;;;;2.87;2.67;;;;;;;12.63;60.34;101490.63;4934984;28;96786;-50
2022/09/12 04:02:20;;;;;;;3.33;3.07;;;;;;;12.59;60.19;101498.38;4927825;28;97479;-50
2022/09/12 04:04:47;;;;;;;3.33;3.07;;;;;;;12.57;60.52;101494.56;4932343;28;97457;-51
2022/09/12 04:07:13;;;;;;;3.13;2.83;;;;;;;12.55;60.31;101486.78;4927416;28;97112;-50
2022/09/12 04:09:38;;;;;;;3.10;2.90;;;;;;;12.48;60.29;101489.19;4942970;28;97453;-50
2022/09/12 04:12:04;;;;;;;3.13;2.83;;;;;;;12.43;60.26;101492.63;4933224;28;97240;-50
2022/09/12 04:14:29;;;;;;;2.60;2.50;;;;;;;12.38;60.46;101499.63;4937197;28;97706;-50
2022/09/12 04:16:54;;;;;;;3.10;2.90;;;;;;;12.36;60.59;101510.38;4941945;28;96786;-55
2022/09/12 04:19:20;;;;;;;2.80;2.60;;;;;;;12.35;60.59;101499.84;4934709;28;98934;-49
2022/09/12 04:21:45;;;;;;;3.93;3.60;;;;;;;12.38;60.78;101498.88;4930896;28;97165;-48
2022/09/12 04:24:10;;;;;;;4.00;3.07;;;;;;;12.39;60.42;101487.34;4934787;28;96883;-49
2022/09/12 04:26:36;;;;;;;3.43;2.90;;;;;;;12.37;60.63;101498.09;4939125;28;97261;-48
2022/09/12 04:29:01;;;;;;;3.37;3.17;;;;;;;12.35;60.48;101494.31;4943586;28;97211;-48
2022/09/12 04:31:27;;;;;;;3.40;3.20;;;;;;;12.34;60.51;101493.53;4938459;28;97377;-48
2022/09/12 04:33:57;;;;;;;3.70;3.50;;;;;;;12.35;60.52;101494.31;4941711;28;96971;-49
2022/09/12 04:36:24;;;;;;;3.13;2.93;;;;;;;12.37;60.46;101486.31;4928359;28;98055;-49
2022/09/12 04:38:50;;;;;;;3.43;2.97;;;;;;;12.35;60.56;101495.06;4935762;28;97753;-48
2022/09/12 04:41:24;;;;;;;3.17;2.87;;;;;;;12.33;60.59;101496.78;4933099;28;96818;-49
2022/09/12 04:43:53;;;;;;;2.93;2.73;;;;;;;12.33;60.38;101497.56;4932575;28;97453;-49
2022/09/12 04:46:19;;;;;;;2.57;2.47;;;;;;;12.30;60.28;101501.28;4934628;28;97445;-49
2022/09/12 04:48:45;;;;;;;13.73;3.00;;;;;;;12.28;60.27;101495.50;4935815;28;97083;-48
2022/09/12 04:51:35;;;;;;;2.57;2.47;;;;;;;12.23;60.83;101492.66;4951321;28;96725;-49
2022/09/12 04:54:03;;;;;;;2.27;2.17;;;;;;;12.21;60.74;101511.72;4941779;28;97558;-49
2022/09/12 04:56:29;;;;;;;3.03;2.83;;;;;;;12.23;60.79;101495.44;4935610;28;96786;-48
2022/09/12 04:58:59;;;;;;;4.43;2.97;;;;;;;12.28;60.96;101506.53;4946446;28;101630;-48
2022/09/12 05:01:26;;;;;;;2.70;2.50;;;;;;;12.29;60.62;101501.78;4939694;28;96859;-49
2022/09/12 05:03:52;;;;;;;3.40;2.97;;;;;;;12.26;60.61;101494.44;4945643;28;97287;-49
2022/09/12 05:06:23;;;;;;;2.93;2.73;;;;;;;12.25;60.92;101499.22;4949897;28;97888;-49
2022/09/12 05:08:49;;;;;;;3.90;3.10;;;;;;;12.24;60.99;101500.47;4945202;28;97497;-48
2022/09/12 05:11:18;;;;;;;2.83;2.63;;;;;;;12.27;60.96;101501.50;4943604;28;96935;-48
2022/09/12 05:13:43;;;;;;;3.17;2.90;;;;;;;12.29;61.17;101501.78;4944130;28;97724;-48
2022/09/12 05:16:11;;;;;;;5.37;3.27;;;;;;;12.32;61.11;101501.56;4939024;28;97465;-48
2022/09/12 05:18:37;;;;;;;4.00;3.00;;;;;;;12.36;61.12;101512.41;4943278;28;97665;-49
2022/09/12 05:21:05;;;;;;;4.00;3.70;;;;;;;12.39;61.01;101514.16;4947908;28;96881;-48
2022/09/12 05:23:32;;;;;;;2.97;2.77;;;;;;;12.39;61.03;101516.94;4943452;28;97228;-49
2022/09/12 05:25:59;;;;;;;3.53;3.30;;;;;;;12.38;61.04;101512.66;4945492;28;97490;-49
2022/09/12 05:28:29;;;;;;;3.10;2.90;;;;;;;12.39;61.05;101519.69;4943718;28;96958;-48
2022/09/12 05:31:09;;;;;;;3.50;3.30;;;;;;;12.40;61.23;101515.69;4938087;28;97143;-48
2022/09/12 05:33:35;;;;;;;3.00;2.80;;;;;;;12.41;61.06;101514.44;4934726;28;97055;-49
2022/09/12 05:36:03;;;;;;;3.17;2.97;;;;;;;12.44;60.82;101513.50;4947965;28;97003;-48
2022/09/12 05:38:28;;;;;;;2.83;2.67;;;;;;;12.45;61.06;101517.78;4941212;28;97626;-48
2022/09/12 05:41:11;;;;;;;3.20;2.90;;;;;;;12.45;61.51;101513.00;4941121;28;116587;-48
2022/09/12 05:43:38;;;;;;;3.13;2.93;;;;;;;12.44;61.20;101514.25;4945869;28;97519;-48
2022/09/12 05:46:10;;;;;;;3.63;2.83;;;;;;;12.46;60.98;101511.00;4942253;28;98647;-48
2022/09/12 05:48:36;;;;;;;2.50;2.40;;;;;;;12.46;61.12;101520.06;4925193;28;97727;-49
2022/09/12 05:51:08;;;;;;;6.93;2.27;;;;;;;12.48;61.26;101508.50;4938601;28;99655;-48
2022/09/12 05:53:36;;;;;;;4.60;2.50;;;;;;;12.49;61.17;101521.81;4928695;28;97030;-48
2022/09/12 05:56:14;;;;;;;3.40;2.93;;;;;;;12.53;61.37;101516.88;4939523;28;97481;-49
2022/09/12 05:58:42;;;;;;;2.33;2.20;;;;;;;12.50;61.12;101517.84;4925557;28;98869;-49
2022/09/12 06:01:13;;;;;;;2.87;2.67;;;;;;;12.55;61.34;101510.88;4933022;28;96770;-48
2022/09/12 06:03:44;;;;;;;2.33;2.23;;;;;;;12.57;61.12;101514.66;4937876;28;97252;-48
2022/09/12 06:06:14;;;;;;;2.50;2.40;;;;;;;12.57;61.30;101516.66;4935330;28;97337;-48
2022/09/12 06:08:41;;;;;;;2.70;2.50;;;;;;;12.59;61.24;101525.22;4923507;28;97054;-49
2022/09/12 06:11:08;;;;;;;3.20;2.90;;;;;;;12.65;61.09;101526.78;4930138;28;97367;-49
2022/09/12 06:13:36;;;;;;;3.43;2.57;;;;;;;12.69;61.29;101527.31;4932277;28;97547;-48
2022/09/12 06:16:16;;;;;;;2.90;2.67;;;;;;;12.75;61.37;101521.88;4936967;28;99384;-48
2022/09/12 06:18:47;;;;;;;2.30;2.20;;;;;;;12.77;61.23;101525.69;4942230;28;102821;-49
2022/09/12 06:21:13;;;;;;;2.40;2.20;;;;;;;12.82;61.25;101527.72;4928750;28;97123;-48
2022/09/12 06:23:39;;;;;;;3.07;2.87;;;;;;;12.83;61.07;101520.19;4945655;28;97442;-49
2022/09/12 06:26:07;;;;;;;3.40;3.10;;;;;;;12.86;61.38;101524.75;4945863;28;97232;-48
2022/09/12 06:28:38;;;;;;;3.23;3.03;;;;;;;12.93;61.66;101518.06;4934489;28;97134;-48
2022/09/12 06:31:10;;;;;;;3.80;3.50;;;;;;;12.98;61.45;101515.31;4925043;28;96879;-49
2022/09/12 06:33:38;;;;;;;3.10;2.90;;;;;;;13.03;61.29;101520.16;4934438;28;96897;-49
2022/09/12 06:36:06;;;;;;;2.67;2.50;;;;;;;13.11;61.54;101523.25;4922819;28;97398;-49
2022/09/12 06:38:31;;;;;;;3.20;3.00;;;;;;;13.19;61.49;101516.81;4926349;28;97413;-49
2022/09/12 06:40:58;;;;;;;2.93;2.73;;;;;;;13.24;61.51;101507.03;4937471;28;97024;-49
2022/09/12 06:43:24;;;;;;;2.80;2.63;;;;;;;13.30;61.44;101516.16;4929494;28;96947;-48
2022/09/12 06:45:49;;;;;;;3.23;2.57;;;;;;;13.33;61.59;101512.41;4934979;28;97712;-49
2022/09/12 06:48:15;;;;;;;3.13;2.93;;;;;;;13.37;61.58;101510.94;4937378;28;98421;-49
2022/09/12 06:50:41;;;;;;;3.37;3.17;;;;;;;13.43;61.69;101506.19;4937339;28;97062;-49
2022/09/12 06:53:06;;;;;;;3.30;3.03;;;;;;;13.49;61.87;101501.50;4946350;28;97069;-49
2022/09/12 06:55:32;;;;;;;3.40;3.20;;;;;;;13.59;61.98;101498.50;4939083;28;97543;-49
2022/09/12 06:57:58;;;;;;;4.13;2.67;;;;;;;13.69;61.94;101503.38;4937598;28;97202;-49
2022/09/12 07:00:23;;;;;;;3.10;2.90;;;;;;;13.76;61.95;101502.91;4930930;28;97527;-49
2022/09/12 07:02:53;;;;;;;3.23;3.03;;;;;;;13.84;62.03;101509.50;4930458;28;97056;-49
2022/09/12 07:05:18;;;;;;;3.23;3.03;;;;;;;13.90;61.99;101502.00;4941673;28;100695;-48
2022/09/12 07:07:43;;;;;;;2.70;2.53;;;;;;;13.98;62.03;101500.28;4926100;28;126077;-49
2022/09/12 07:10:10;;;;;;;2.80;2.57;;;;;;;14.06;62.18;101504.09;4947957;28;97185;-49
2022/09/12 07:12:36;;;;;;;2.80;2.60;;;;;;;14.17;62.05;101509.69;4935162;28;97245;-49
2022/09/12 07:15:01;;;;;;;2.83;2.73;;;;;;;14.26;62.21;101503.94;4932260;28;97309;-49
2022/09/12 07:17:26;;;;;;;3.47;3.17;;;;;;;14.36;62.17;101517.59;4928964;28;119098;-49
2022/09/12 07:19:52;;;;;;;3.63;3.33;;;;;;;14.43;62.29;101506.81;4927297;28;97217;-49
2022/09/12 07:22:17;;;;;;;4.33;3.87;;;;;;;14.51;62.24;101513.38;4941306;28;97493;-49
2022/09/12 07:24:44;;;;;;;3.50;3.20;;;;;;;14.59;62.45;101502.56;4942330;28;97420;-49
2022/09/12 07:27:09;;;;;;;3.50;3.20;;;;;;;14.66;62.42;101515.91;4945902;28;96805;-49
2022/09/12 07:29:35;;;;;;;3.30;3.10;;;;;;;14.73;62.34;101510.66;4943256;28;97338;-48
2022/09/12 07:32:01;;;;;;;2.80;2.60;;;;;;;14.80;62.52;101509.41;4945688;28;97299;-49
2022/09/12 07:34:26;;;;;;;3.43;3.03;;;;;;;14.89;62.67;101506.41;4925856;28;97185;-49
2022/09/12 07:36:51;;;;;;;2.70;2.60;;;;;;;14.97;62.58;101508.19;4932743;28;98697;-49
2022/09/12 07:39:17;;;;;;;10.00;3.23;;;;;;;15.06;62.76;101506.44;4942227;28;101187;-49
2022/09/12 07:41:42;;;;;;;4.10;3.70;;;;;;;15.16;62.61;101513.25;4945633;28;97594;-49
2022/09/12 07:44:07;;;;;;;2.93;2.73;;;;;;;15.28;62.76;101514.75;4938899;28;97442;-48
2022/09/12 07:46:34;;;;;;;3.23;2.97;;;;;;;15.37;62.91;101511.75;4944406;28;97242;-49
2022/09/12 07:49:00;;;;;;;3.30;3.00;;;;;;;15.48;63.17;101506.22;4949443;28;96775;-49
2022/09/12 07:51:27;;;;;;;3.50;3.20;;;;;;;15.59;63.09;101506.97;4947312;28;96944;-48
2022/09/12 07:53:53;;;;;;;6.20;2.77;;;;;;;15.71;62.99;101507.69;4939588;28;97547;-49
2022/09/12 07:56:20;;;;;;;3.37;3.17;;;;;;;15.83;63.05;101508.44;4942621;28;97308;-49
2022/09/12 07:58:46;;;;;;;3.60;3.30;;;;;;;15.94;63.21;101511.19;4946008;28;97609;-49
2022/09/12 08:01:12;;;;;;;3.83;3.50;;;;;;;16.06;63.20;101509.88;4941433;28;97378;-49
2022/09/12 08:03:39;;;;;;;3.90;3.60;;;;;;;16.20;63.26;101509.59;4935368;28;98073;-49
2022/09/12 08:06:07;;;;;;;3.10;2.50;;;;;;;16.33;63.23;101507.03;4937361;28;98370;-49
2022/09/12 08:08:33;;;;;;;4.90;4.40;;;;;;;16.44;63.33;101512.53;4927772;28;97012;-49
2022/09/12 08:11:00;;;;;;;3.80;3.50;;;;;;;16.57;63.28;101509.22;4936190;28;96745;-49
2022/09/12 08:13:27;;;;;;;4.17;3.80;;;;;;;16.70;63.25;101516.97;4939490;28;98560;-49
2022/09/12 08:15:59;;;;;;;4.67;3.40;;;;;;;16.81;63.50;101509.31;4950825;28;97452;-48
2022/09/12 08:18:27;;;;;;;4.93;4.40;;;;;;;16.92;63.57;101509.25;4942695;28;97060;-49
2022/09/12 08:21:00;;;;;;;6.73;4.90;;;;;;;17.08;63.60;101510.41;4945577;28;97356;-49
2022/09/12 08:23:27;;;;;;;4.30;3.90;;;;;;;17.18;63.45;101506.78;4953183;28;100391;-49
2022/09/12 08:25:57;;;;;;;6.50;3.67;;;;;;;17.40;63.58;101516.22;4947582;28;97239;-49
2022/09/12 08:28:24;;;;;;;3.00;2.80;;;;;;;17.56;63.42;101507.00;4938477;28;96946;-49
2022/09/12 08:30:50;;;;;;;5.27;3.73;;;;;;;17.74;63.47;101506.31;4939045;28;97534;-49
2022/09/12 08:33:15;;;;;;;3.83;3.50;;;;;;;17.92;63.26;101506.38;4945287;28;98094;-49
2022/09/12 08:35:40;;;;;;;2.90;2.70;;;;;;;18.10;63.28;101507.69;4939636;28;97128;-49
2022/09/12 08:38:05;;;;;;;6.40;3.50;;;;;;;18.28;63.53;101503.44;4945148;28;111718;-49
2022/09/12 08:40:40;;;;;;;3.73;3.23;;;;;;;18.50;63.23;101505.97;4934666;28;97218;-49
2022/09/12 08:43:33;;;;;;;3.50;3.30;;;;;;;18.75;63.19;101503.84;4934901;28;97348;-49
2022/09/12 08:46:11;;;;;;;4.03;3.63;;;;;;;18.99;62.88;101512.84;4943408;28;101617;-49
2022/09/12 08:48:37;;;;;;;5.20;4.70;;;;;;;19.18;62.25;101501.66;4928902;28;97136;-49
2022/09/12 08:51:03;;;;;;;5.77;4.60;;;;;;;19.36;62.15;101498.06;4943833;28;97235;-49
2022/09/12 08:53:34;;;;;;;4.53;4.13;;;;;;;19.57;62.13;101498.25;4937398;28;97022;-49
2022/09/12 08:56:03;;;;;;;5.20;4.00;;;;;;;19.76;62.14;101504.47;4940359;28;97278;-49
2022/09/12 08:58:29;;;;;;;5.77;4.83;;;;;;;19.89;62.04;101502.47;4926463;28;97066;-48
2022/09/12 09:01:09;;;;;;;5.07;4.60;;;;;;;20.09;62.04;101501.06;4937531;28;97050;-49
2022/09/12 09:04:04;;;;;;;4.50;4.10;;;;;;;20.28;61.65;101498.16;4941514;28;100539;-52
2022/09/12 09:06:50;;;;;;;5.60;5.00;;;;;;;20.42;61.36;101494.78;4932611;28;98448;-49
2022/09/12 09:09:19;;;;;;;4.73;4.20;;;;;;;20.61;61.35;101489.81;4931180;28;96742;-49
2022/09/12 09:11:55;;;;;;;3.20;2.90;;;;;;;20.76;61.34;101495.56;4928194;28;97884;-49
2022/09/12 09:14:53;;;;;;;3.83;3.50;;;;;;;20.96;61.35;101477.28;4939672;28;97204;-49
2022/09/12 09:17:31;;;;;;;4.40;4.00;;;;;;;21.16;61.07;101476.59;4941574;28;102712;-49
2022/09/12 09:20:43;;;;;;;4.13;3.73;;;;;;;21.34;60.88;101474.88;4934087;28;97306;-49
2022/09/12 09:23:30;;;;;;;4.90;3.63;;;;;;;21.51;60.53;101475.19;4947103;28;97244;-49
2022/09/12 09:26:01;;;;;;;4.83;3.70;;;;;;;21.63;60.37;101468.72;4942038;28;100540;-49
2022/09/12 09:28:35;;;;;;;8.77;4.77;;;;;;;21.77;60.14;101466.56;4947181;28;96900;-49
2022/09/12 09:31:00;;;;;;;6.10;3.57;;;;;;;21.86;60.10;101462.53;4947033;28;97227;-49
2022/09/12 09:33:32;;;;;;;4.57;4.17;;;;;;;21.95;59.67;101459.97;4948431;28;96797;-48
2022/09/12 09:36:18;;;;;;;6.53;4.30;;;;;;;22.04;59.47;101453.13;4939878;28;100852;-48
2022/09/12 09:39:01;;;;;;;5.03;4.07;;;;;;;22.12;59.21;101456.69;4944783;28;102878;-49
2022/09/12 09:41:54;;;;;;;5.13;4.17;;;;;;;22.17;58.94;101459.31;4925856;28;97057;-48
2022/09/12 09:44:20;;;;;;;5.57;3.63;;;;;;;22.26;59.36;101447.59;4932570;28;97283;-49
2022/09/12 09:46:51;;;;;;;3.77;3.00;;;;;;;22.35;59.14;101451.91;4946932;28;97538;-49
2022/09/12 09:49:17;;;;;;;4.00;3.70;;;;;;;22.42;59.00;101456.81;4926826;28;98026;-49
2022/09/12 09:51:42;;;;;;;5.43;3.57;;;;;;;22.49;58.95;101449.72;4940295;28;97501;-49
2022/09/12 09:54:22;;;;;;;3.27;3.00;;;;;;;22.57;58.30;101445.63;4947901;28;96955;-49
2022/09/12 09:56:48;;;;;;;3.03;2.83;;;;;;;22.65;58.84;101445.69;4940696;28;101734;-48
2022/09/12 09:59:27;;;;;;;3.97;3.53;;;;;;;22.69;57.59;101444.03;4933708;28;97517;-48
2022/09/12 10:01:56;;;;;;;4.80;4.10;;;;;;;22.73;58.32;101443.63;4940184;28;97084;-49
2022/09/12 10:04:28;;;;;;;4.57;3.80;;;;;;;22.75;57.81;101438.97;4945996;28;99135;-49
2022/09/12 10:06:57;;;;;;;3.07;2.83;;;;;;;22.81;57.89;101438.78;4943885;28;101761;-49
2022/09/12 10:09:28;;;;;;;4.07;3.10;;;;;;;22.86;57.87;101440.66;4946906;28;97562;-49
2022/09/12 10:11:55;;;;;;;5.27;4.40;;;;;;;22.94;57.68;101441.41;4946777;28;96992;-48
2022/09/12 10:14:30;;;;;;;4.43;3.70;;;;;;;22.99;57.05;101434.88;4941992;28;96788;-48
2022/09/12 10:16:57;;;;;;;4.50;3.10;;;;;;;23.06;57.59;101439.75;4944684;28;98130;-48
2022/09/12 10:19:33;;;;;;;3.70;3.40;;;;;;;23.17;56.78;101439.38;4945455;28;98313;-49
2022/09/12 10:21:59;;;;;;;3.07;2.77;;;;;;;23.24;57.24;101438.59;4943471;28;97449;-49
2022/09/12 10:24:29;;;;;;;3.17;2.97;;;;;;;23.33;56.89;101428.88;4944317;28;96714;-49
2022/09/12 10:27:04;;;;;;;2.83;2.63;;;;;;;23.38;57.04;101428.72;4942893;28;97302;-49
2022/09/12 10:29:33;;;;;;;3.67;3.33;;;;;;;23.42;56.68;101431.88;4935450;28;97272;-49
2022/09/12 10:32:03;;;;;;;3.50;3.30;;;;;;;23.45;56.55;101430.75;4933106;28;97033;-49
2022/09/12 10:34:35;;;;;;;3.00;2.70;;;;;;;23.53;56.18;101428.69;4943732;28;96769;-49
2022/09/12 10:37:07;;;;;;;3.47;3.17;;;;;;;23.60;55.93;101427.94;4932548;28;97256;-49
2022/09/12 10:39:36;;;;;;;3.00;2.80;;;;;;;23.69;55.88;101421.72;4937539;28;96908;-49
2022/09/12 10:42:03;;;;;;;4.43;3.47;;;;;;;23.77;55.78;101416.81;4932853;28;98313;-49
2022/09/12 10:44:31;;;;;;;3.47;3.17;;;;;;;23.84;55.38;101413.25;4933648;28;96838;-48
2022/09/12 10:46:57;;;;;;;3.50;3.20;;;;;;;23.91;55.44;101413.78;4942109;28;97894;-48
2022/09/12 10:49:28;;;;;;;3.47;3.17;;;;;;;23.95;55.17;101416.94;4930148;28;98665;-48
2022/09/12 10:51:55;;;;;;;3.00;2.70;;;;;;;23.99;54.95;101415.25;4933333;28;97373;-48
2022/09/12 10:54:24;;;;;;;3.13;2.73;;;;;;;24.02;54.67;101405.69;4943938;28;97202;-48
2022/09/12 10:56:58;;;;;;;2.90;2.70;;;;;;;24.01;54.48;101411.84;4923507;28;97182;-48
2022/09/12 10:59:23;;;;;;;2.30;2.20;;;;;;;24.07;54.86;101415.25;4925787;28;97390;-48
2022/09/12 11:01:52;;;;;;;3.90;2.50;;;;;;;24.10;53.43;101412.03;4940665;28;97110;-49
2022/09/12 11:05:02;;;;;;;5.20;2.97;;;;;;;24.12;51.96;101400.22;4942229;28;96749;-48
2022/09/12 11:07:36;;;;;;;2.63;2.47;;;;;;;24.12;52.44;101403.03;4929479;28;103162;-48
2022/09/12 11:10:06;;;;;;;2.53;2.40;;;;;;;24.11;52.72;101402.28;4947370;28;97011;-49
2022/09/12 11:13:16;;;;;;;4.23;2.53;;;;;;;24.12;52.03;101398.16;4942630;28;97500;-50
2022/09/12 11:15:57;;;;;;;2.13;2.03;;;;;;;24.23;52.66;101402.59;4944499;28;97221;-48
2022/09/12 11:18:34;;;;;;;1.60;1.50;;;;;;;24.32;52.56;101391.50;4942183;28;98581;-48
2022/09/12 11:21:08;;;;;;;1.90;1.80;;;;;;;24.40;52.74;101391.44;4949425;28;100175;-48
2022/09/12 11:24:05;;;;;;;3.07;2.63;;;;;;;24.48;51.67;101389.34;4932987;28;97576;-48
2022/09/12 11:26:40;;;;;;;1.90;1.80;;;;;;;24.54;52.19;101387.78;4943167;28;96778;-48
2022/09/12 11:29:08;;;;;;;2.13;2.03;;;;;;;24.62;52.55;101384.19;4944769;28;101746;-48
2022/09/12 11:32:01;;;;;;;2.13;2.03;;;;;;;24.70;51.11;101380.00;4931060;28;97270;-48
2022/09/12 11:34:38;;;;;;;2.20;2.00;;;;;;;24.79;51.62;101387.09;4946318;28;97284;-48
2022/09/12 11:37:28;;;;;;;1.93;1.83;;;;;;;24.87;50.84;101382.88;4932639;28;96917;-48
2022/09/12 11:39:59;;;;;;;2.30;2.20;;;;;;;24.96;51.78;101375.88;4943055;28;102541;-48
2022/09/12 11:42:32;;;;;;;3.60;2.23;;;;;;;24.99;50.75;101374.69;4932702;28;98555;-49
2022/09/12 11:45:23;;;;;;;2.17;2.07;;;;;;;25.05;50.41;101372.41;4928674;28;97205;-48